sensor_id;sensor_type;location;lat;lon;timestamp;P1;durP1;ratioP1;P2;durP2;ratioP2
11066;SDS011;29763;50.904;5.530;2023-09-18T00:01:22;10.70;;;7.65;;
11066;SDS011;29763;50.904;5.530;2023-09-18T00:03:57;10.85;;;7.22;;
11066;SDS011;29763;50.904;5.530;2023-09-18T00:06:31;11.10;;;7.38;;
11066;SDS011;29763;50.904;5.530;2023-09-18T00:08:58;10.10;;;7.50;;
11066;SDS011;29763;50.904;5.530;2023-09-18T00:11:31;10.45;;;7.65;;
11066;SDS011;29763;50.904;5.530;2023-09-18T00:14:01;9.70;;;7.05;;
11066;SDS011;29763;50.904;5.530;2023-09-18T00:16:40;10.65;;;7.88;;
11066;SDS011;29763;50.904;5.530;2023-09-18T00:19:08;10.07;;;7.13;;
11066;SDS011;29763;50.904;5.530;2023-09-18T00:21:34;9.25;;;7.13;;
11066;SDS011;29763;50.904;5.530;2023-09-18T00:24:01;10.95;;;7.32;;
11066;SDS011;29763;50.904;5.530;2023-09-18T00:26:31;10.85;;;7.00;;
11066;SDS011;29763;50.904;5.530;2023-09-18T00:29:00;10.20;;;7.10;;
11066;SDS011;29763;50.904;5.530;2023-09-18T00:31:25;9.57;;;7.10;;
11066;SDS011;29763;50.904;5.530;2023-09-18T00:33:51;10.10;;;7.18;;
11066;SDS011;29763;50.904;5.530;2023-09-18T00:36:19;8.98;;;7.05;;
11066;SDS011;29763;50.904;5.530;2023-09-18T00:45:07;9.02;;;7.57;;
11066;SDS011;29763;50.904;5.530;2023-09-18T00:47:59;8.18;;;7.35;;
11066;SDS011;29763;50.904;5.530;2023-09-18T00:51:22;9.60;;;6.95;;
11066;SDS011;29763;50.904;5.530;2023-09-18T00:57:19;9.10;;;7.38;;
11066;SDS011;29763;50.904;5.530;2023-09-18T00:59:52;11.30;;;7.38;;
11066;SDS011;29763;50.904;5.530;2023-09-18T01:02:29;11.90;;;7.60;;
11066;SDS011;29763;50.904;5.530;2023-09-18T01:04:56;10.48;;;7.03;;
11066;SDS011;29763;50.904;5.530;2023-09-18T01:07:25;11.57;;;7.68;;
11066;SDS011;29763;50.904;5.530;2023-09-18T01:09:53;9.07;;;7.25;;
11066;SDS011;29763;50.904;5.530;2023-09-18T01:12:33;13.05;;;7.32;;
11066;SDS011;29763;50.904;5.530;2023-09-18T01:17:39;12.18;;;8.10;;
11066;SDS011;29763;50.904;5.530;2023-09-18T01:20:09;11.25;;;8.05;;
11066;SDS011;29763;50.904;5.530;2023-09-18T01:22:42;9.43;;;7.97;;
11066;SDS011;29763;50.904;5.530;2023-09-18T01:25:09;9.32;;;7.80;;
11066;SDS011;29763;50.904;5.530;2023-09-18T01:27:37;9.95;;;7.80;;
11066;SDS011;29763;50.904;5.530;2023-09-18T01:30:06;11.02;;;7.90;;
11066;SDS011;29763;50.904;5.530;2023-09-18T01:32:32;10.45;;;7.75;;
11066;SDS011;29763;50.904;5.530;2023-09-18T01:35:10;12.05;;;8.20;;
11066;SDS011;29763;50.904;5.530;2023-09-18T01:37:38;11.45;;;7.55;;
11066;SDS011;29763;50.904;5.530;2023-09-18T01:40:05;12.05;;;7.93;;
11066;SDS011;29763;50.904;5.530;2023-09-18T01:42:53;9.02;;;7.65;;
11066;SDS011;29763;50.904;5.530;2023-09-18T01:45:19;11.48;;;7.80;;
11066;SDS011;29763;50.904;5.530;2023-09-18T01:47:45;10.73;;;7.80;;
11066;SDS011;29763;50.904;5.530;2023-09-18T01:50:15;11.18;;;7.82;;
11066;SDS011;29763;50.904;5.530;2023-09-18T01:52:41;12.00;;;7.63;;
11066;SDS011;29763;50.904;5.530;2023-09-18T01:55:08;12.63;;;7.70;;
11066;SDS011;29763;50.904;5.530;2023-09-18T01:57:35;11.82;;;7.38;;
11066;SDS011;29763;50.904;5.530;2023-09-18T02:00:02;12.63;;;9.63;;
11066;SDS011;29763;50.904;5.530;2023-09-18T02:02:35;15.90;;;10.02;;
11066;SDS011;29763;50.904;5.530;2023-09-18T02:05:07;16.98;;;9.50;;
11066;SDS011;29763;50.904;5.530;2023-09-18T02:07:33;14.23;;;9.95;;
11066;SDS011;29763;50.904;5.530;2023-09-18T02:09:59;16.15;;;10.00;;
11066;SDS011;29763;50.904;5.530;2023-09-18T02:12:25;13.48;;;9.60;;
11066;SDS011;29763;50.904;5.530;2023-09-18T02:14:53;11.95;;;9.13;;
11066;SDS011;29763;50.904;5.530;2023-09-18T02:17:25;11.07;;;9.10;;
11066;SDS011;29763;50.904;5.530;2023-09-18T02:19:52;11.75;;;8.15;;
11066;SDS011;29763;50.904;5.530;2023-09-18T02:22:19;15.32;;;9.32;;
11066;SDS011;29763;50.904;5.530;2023-09-18T02:24:49;13.20;;;8.43;;
11066;SDS011;29763;50.904;5.530;2023-09-18T02:27:15;9.43;;;8.07;;
11066;SDS011;29763;50.904;5.530;2023-09-18T02:29:43;17.20;;;8.13;;
11066;SDS011;29763;50.904;5.530;2023-09-18T02:32:10;11.10;;;8.10;;
11066;SDS011;29763;50.904;5.530;2023-09-18T02:34:37;14.55;;;8.63;;
11066;SDS011;29763;50.904;5.530;2023-09-18T02:37:03;14.45;;;7.93;;
11066;SDS011;29763;50.904;5.530;2023-09-18T02:39:35;14.82;;;8.63;;
11066;SDS011;29763;50.904;5.530;2023-09-18T02:42:07;12.70;;;7.90;;
11066;SDS011;29763;50.904;5.530;2023-09-18T02:44:35;12.73;;;8.30;;
11066;SDS011;29763;50.904;5.530;2023-09-18T02:47:02;15.77;;;8.35;;
11066;SDS011;29763;50.904;5.530;2023-09-18T02:49:27;15.38;;;8.23;;
11066;SDS011;29763;50.904;5.530;2023-09-18T02:51:54;10.32;;;7.53;;
11066;SDS011;29763;50.904;5.530;2023-09-18T02:54:21;13.40;;;8.32;;
11066;SDS011;29763;50.904;5.530;2023-09-18T02:56:48;13.20;;;7.20;;
11066;SDS011;29763;50.904;5.530;2023-09-18T02:59:14;13.55;;;7.57;;
11066;SDS011;29763;50.904;5.530;2023-09-18T03:01:40;9.02;;;6.60;;
11066;SDS011;29763;50.904;5.530;2023-09-18T03:04:08;9.35;;;6.30;;
11066;SDS011;29763;50.904;5.530;2023-09-18T03:06:34;8.55;;;5.65;;
11066;SDS011;29763;50.904;5.530;2023-09-18T03:09:06;7.22;;;5.10;;
11066;SDS011;29763;50.904;5.530;2023-09-18T03:11:33;6.60;;;4.60;;
11066;SDS011;29763;50.904;5.530;2023-09-18T03:14:01;6.70;;;4.72;;
11066;SDS011;29763;50.904;5.530;2023-09-18T03:16:35;6.15;;;4.40;;
11066;SDS011;29763;50.904;5.530;2023-09-18T03:19:03;5.70;;;4.45;;
11066;SDS011;29763;50.904;5.530;2023-09-18T03:21:29;7.75;;;4.75;;
11066;SDS011;29763;50.904;5.530;2023-09-18T03:24:09;9.10;;;4.93;;
11066;SDS011;29763;50.904;5.530;2023-09-18T03:26:41;10.00;;;4.43;;
11066;SDS011;29763;50.904;5.530;2023-09-18T03:29:13;7.93;;;4.22;;
11066;SDS011;29763;50.904;5.530;2023-09-18T03:31:39;6.72;;;4.35;;
11066;SDS011;29763;50.904;5.530;2023-09-18T03:34:09;7.55;;;4.30;;
11066;SDS011;29763;50.904;5.530;2023-09-18T03:36:43;6.97;;;4.68;;
11066;SDS011;29763;50.904;5.530;2023-09-18T03:39:10;7.30;;;4.72;;
11066;SDS011;29763;50.904;5.530;2023-09-18T03:41:38;6.97;;;4.55;;
11066;SDS011;29763;50.904;5.530;2023-09-18T03:44:04;7.93;;;4.45;;
11066;SDS011;29763;50.904;5.530;2023-09-18T03:46:38;6.50;;;5.07;;
11066;SDS011;29763;50.904;5.530;2023-09-18T03:49:03;6.47;;;4.40;;
11066;SDS011;29763;50.904;5.530;2023-09-18T03:51:47;9.05;;;4.72;;
11066;SDS011;29763;50.904;5.530;2023-09-18T03:54:13;5.40;;;4.72;;
11066;SDS011;29763;50.904;5.530;2023-09-18T03:56:40;8.75;;;4.55;;
11066;SDS011;29763;50.904;5.530;2023-09-18T03:59:08;5.70;;;4.30;;
11066;SDS011;29763;50.904;5.530;2023-09-18T04:01:37;8.48;;;4.30;;
11066;SDS011;29763;50.904;5.530;2023-09-18T04:04:04;9.50;;;4.95;;
11066;SDS011;29763;50.904;5.530;2023-09-18T04:06:42;6.60;;;4.43;;
11066;SDS011;29763;50.904;5.530;2023-09-18T04:09:11;7.63;;;4.70;;
11066;SDS011;29763;50.904;5.530;2023-09-18T04:11:37;9.50;;;4.50;;
11066;SDS011;29763;50.904;5.530;2023-09-18T04:14:21;7.63;;;4.63;;
11066;SDS011;29763;50.904;5.530;2023-09-18T04:16:48;7.45;;;4.63;;
11066;SDS011;29763;50.904;5.530;2023-09-18T04:19:28;9.07;;;4.72;;
11066;SDS011;29763;50.904;5.530;2023-09-18T04:21:57;7.63;;;4.50;;
11066;SDS011;29763;50.904;5.530;2023-09-18T04:24:25;6.30;;;4.20;;
11066;SDS011;29763;50.904;5.530;2023-09-18T04:26:58;4.35;;;3.80;;
11066;SDS011;29763;50.904;5.530;2023-09-18T04:29:24;6.82;;;4.78;;
11066;SDS011;29763;50.904;5.530;2023-09-18T04:31:50;9.13;;;4.55;;
11066;SDS011;29763;50.904;5.530;2023-09-18T04:34:15;7.50;;;4.22;;
11066;SDS011;29763;50.904;5.530;2023-09-18T04:36:43;6.32;;;4.10;;
11066;SDS011;29763;50.904;5.530;2023-09-18T04:39:09;7.57;;;4.65;;
11066;SDS011;29763;50.904;5.530;2023-09-18T04:41:35;5.60;;;4.20;;
11066;SDS011;29763;50.904;5.530;2023-09-18T04:44:07;9.13;;;4.55;;
11066;SDS011;29763;50.904;5.530;2023-09-18T04:46:34;5.00;;;4.35;;
11066;SDS011;29763;50.904;5.530;2023-09-18T04:49:05;7.28;;;4.40;;
11066;SDS011;29763;50.904;5.530;2023-09-18T04:51:33;8.45;;;4.30;;
11066;SDS011;29763;50.904;5.530;2023-09-18T04:54:00;6.68;;;4.07;;
11066;SDS011;29763;50.904;5.530;2023-09-18T04:56:28;7.13;;;3.95;;
11066;SDS011;29763;50.904;5.530;2023-09-18T04:58:55;7.68;;;4.05;;
11066;SDS011;29763;50.904;5.530;2023-09-18T05:01:23;5.55;;;3.80;;
11066;SDS011;29763;50.904;5.530;2023-09-18T05:03:50;4.50;;;3.47;;
11066;SDS011;29763;50.904;5.530;2023-09-18T05:06:18;5.60;;;3.58;;
11066;SDS011;29763;50.904;5.530;2023-09-18T05:08:58;7.15;;;3.83;;
11066;SDS011;29763;50.904;5.530;2023-09-18T05:11:25;7.47;;;3.78;;
11066;SDS011;29763;50.904;5.530;2023-09-18T05:14:02;6.65;;;3.38;;
11066;SDS011;29763;50.904;5.530;2023-09-18T05:16:34;5.15;;;3.45;;
11066;SDS011;29763;50.904;5.530;2023-09-18T05:19:21;8.27;;;3.38;;
11066;SDS011;29763;50.904;5.530;2023-09-18T05:21:58;5.20;;;3.40;;
11066;SDS011;29763;50.904;5.530;2023-09-18T05:24:34;5.97;;;3.03;;
11066;SDS011;29763;50.904;5.530;2023-09-18T05:27:00;5.40;;;3.42;;
11066;SDS011;29763;50.904;5.530;2023-09-18T05:29:26;5.30;;;3.10;;
11066;SDS011;29763;50.904;5.530;2023-09-18T05:32:01;4.97;;;3.03;;
11066;SDS011;29763;50.904;5.530;2023-09-18T05:34:47;3.00;;;2.70;;
11066;SDS011;29763;50.904;5.530;2023-09-18T05:37:15;5.47;;;2.95;;
11066;SDS011;29763;50.904;5.530;2023-09-18T05:39:48;4.50;;;3.28;;
11066;SDS011;29763;50.904;5.530;2023-09-18T05:42:14;5.60;;;3.35;;
11066;SDS011;29763;50.904;5.530;2023-09-18T05:44:41;3.75;;;2.60;;
11066;SDS011;29763;50.904;5.530;2023-09-18T05:47:08;4.05;;;2.60;;
11066;SDS011;29763;50.904;5.530;2023-09-18T05:49:45;4.70;;;2.70;;
11066;SDS011;29763;50.904;5.530;2023-09-18T05:59:13;8.90;;;2.95;;
11066;SDS011;29763;50.904;5.530;2023-09-18T06:01:50;5.88;;;2.80;;
11066;SDS011;29763;50.904;5.530;2023-09-18T06:04:18;3.65;;;2.65;;
11066;SDS011;29763;50.904;5.530;2023-09-18T06:06:46;3.83;;;2.60;;
11066;SDS011;29763;50.904;5.530;2023-09-18T06:09:12;3.60;;;2.50;;
11066;SDS011;29763;50.904;5.530;2023-09-18T06:11:39;4.28;;;2.35;;
11066;SDS011;29763;50.904;5.530;2023-09-18T06:14:07;5.97;;;2.53;;
11066;SDS011;29763;50.904;5.530;2023-09-18T06:16:33;5.13;;;2.45;;
11066;SDS011;29763;50.904;5.530;2023-09-18T06:19:00;3.95;;;2.60;;
11066;SDS011;29763;50.904;5.530;2023-09-18T06:21:26;6.90;;;2.40;;
11066;SDS011;29763;50.904;5.530;2023-09-18T06:23:54;3.22;;;2.22;;
11066;SDS011;29763;50.904;5.530;2023-09-18T06:26:21;3.83;;;2.55;;
11066;SDS011;29763;50.904;5.530;2023-09-18T06:28:49;5.40;;;2.50;;
11066;SDS011;29763;50.904;5.530;2023-09-18T06:31:16;3.90;;;2.50;;
11066;SDS011;29763;50.904;5.530;2023-09-18T06:33:44;5.90;;;2.35;;
11066;SDS011;29763;50.904;5.530;2023-09-18T06:36:13;3.53;;;2.30;;
11066;SDS011;29763;50.904;5.530;2023-09-18T06:38:45;4.70;;;2.33;;
11066;SDS011;29763;50.904;5.530;2023-09-18T06:41:13;4.15;;;2.50;;
11066;SDS011;29763;50.904;5.530;2023-09-18T06:43:39;3.60;;;2.45;;
11066;SDS011;29763;50.904;5.530;2023-09-18T06:46:12;3.80;;;2.28;;
11066;SDS011;29763;50.904;5.530;2023-09-18T06:48:38;3.08;;;2.20;;
11066;SDS011;29763;50.904;5.530;2023-09-18T06:51:11;4.82;;;2.40;;
11066;SDS011;29763;50.904;5.530;2023-09-18T06:53:37;3.03;;;2.38;;
11066;SDS011;29763;50.904;5.530;2023-09-18T06:56:03;4.50;;;2.50;;
11066;SDS011;29763;50.904;5.530;2023-09-18T06:58:31;2.95;;;2.33;;
11066;SDS011;29763;50.904;5.530;2023-09-18T07:00:57;2.50;;;2.30;;
11066;SDS011;29763;50.904;5.530;2023-09-18T07:03:24;4.60;;;2.35;;
11066;SDS011;29763;50.904;5.530;2023-09-18T07:05:51;3.75;;;2.30;;
11066;SDS011;29763;50.904;5.530;2023-09-18T07:08:17;7.15;;;2.38;;
11066;SDS011;29763;50.904;5.530;2023-09-18T07:10:48;2.97;;;2.50;;
11066;SDS011;29763;50.904;5.530;2023-09-18T07:13:15;5.25;;;2.40;;
11066;SDS011;29763;50.904;5.530;2023-09-18T07:15:47;3.65;;;2.20;;
11066;SDS011;29763;50.904;5.530;2023-09-18T07:18:23;4.60;;;2.25;;
11066;SDS011;29763;50.904;5.530;2023-09-18T07:20:48;3.78;;;2.13;;
11066;SDS011;29763;50.904;5.530;2023-09-18T07:23:18;3.33;;;2.30;;
11066;SDS011;29763;50.904;5.530;2023-09-18T07:26:10;6.90;;;2.25;;
11066;SDS011;29763;50.904;5.530;2023-09-18T07:28:35;4.05;;;2.40;;
11066;SDS011;29763;50.904;5.530;2023-09-18T07:31:12;3.80;;;2.35;;
11066;SDS011;29763;50.904;5.530;2023-09-18T07:33:40;4.38;;;2.38;;
11066;SDS011;29763;50.904;5.530;2023-09-18T07:36:16;3.38;;;2.13;;
11066;SDS011;29763;50.904;5.530;2023-09-18T07:38:49;3.10;;;2.05;;
11066;SDS011;29763;50.904;5.530;2023-09-18T07:41:26;4.00;;;2.13;;
11066;SDS011;29763;50.904;5.530;2023-09-18T07:43:53;4.00;;;1.95;;
11066;SDS011;29763;50.904;5.530;2023-09-18T07:46:23;3.40;;;2.33;;
11066;SDS011;29763;50.904;5.530;2023-09-18T07:48:52;2.85;;;2.20;;
11066;SDS011;29763;50.904;5.530;2023-09-18T07:51:18;4.45;;;2.10;;
11066;SDS011;29763;50.904;5.530;2023-09-18T07:53:51;4.32;;;2.17;;
11066;SDS011;29763;50.904;5.530;2023-09-18T07:56:19;4.15;;;1.90;;
11066;SDS011;29763;50.904;5.530;2023-09-18T07:58:48;5.05;;;2.30;;
11066;SDS011;29763;50.904;5.530;2023-09-18T08:01:14;4.60;;;2.50;;
11066;SDS011;29763;50.904;5.530;2023-09-18T08:03:42;4.00;;;2.10;;
11066;SDS011;29763;50.904;5.530;2023-09-18T08:06:14;6.07;;;2.47;;
11066;SDS011;29763;50.904;5.530;2023-09-18T08:08:48;5.18;;;2.30;;
11066;SDS011;29763;50.904;5.530;2023-09-18T08:11:15;3.65;;;2.03;;
11066;SDS011;29763;50.904;5.530;2023-09-18T08:13:41;3.50;;;2.53;;
11066;SDS011;29763;50.904;5.530;2023-09-18T08:16:27;2.75;;;2.00;;
11066;SDS011;29763;50.904;5.530;2023-09-18T08:18:55;2.10;;;1.90;;
11066;SDS011;29763;50.904;5.530;2023-09-18T08:21:23;3.88;;;2.22;;
11066;SDS011;29763;50.904;5.530;2023-09-18T08:24:00;4.03;;;2.30;;
11066;SDS011;29763;50.904;5.530;2023-09-18T08:26:26;14.32;;;2.50;;
11066;SDS011;29763;50.904;5.530;2023-09-18T08:28:53;5.18;;;2.30;;
11066;SDS011;29763;50.904;5.530;2023-09-18T08:31:22;9.68;;;2.88;;
11066;SDS011;29763;50.904;5.530;2023-09-18T08:33:59;6.68;;;2.33;;
11066;SDS011;29763;50.904;5.530;2023-09-18T08:36:28;3.63;;;2.05;;
11066;SDS011;29763;50.904;5.530;2023-09-18T08:38:55;3.88;;;2.30;;
11066;SDS011;29763;50.904;5.530;2023-09-18T08:41:21;9.80;;;2.92;;
11066;SDS011;29763;50.904;5.530;2023-09-18T08:44:00;7.22;;;2.55;;
11066;SDS011;29763;50.904;5.530;2023-09-18T08:46:47;4.40;;;2.20;;
11066;SDS011;29763;50.904;5.530;2023-09-18T08:49:17;5.78;;;2.22;;
11066;SDS011;29763;50.904;5.530;2023-09-18T08:51:51;3.83;;;2.00;;
11066;SDS011;29763;50.904;5.530;2023-09-18T08:54:21;3.45;;;2.42;;
11066;SDS011;29763;50.904;5.530;2023-09-18T08:57:07;6.22;;;2.35;;
11066;SDS011;29763;50.904;5.530;2023-09-18T08:59:35;2.38;;;2.13;;
11066;SDS011;29763;50.904;5.530;2023-09-18T09:02:09;3.92;;;2.15;;
11066;SDS011;29763;50.904;5.530;2023-09-18T09:04:37;2.00;;;1.75;;
11066;SDS011;29763;50.904;5.530;2023-09-18T09:07:04;4.32;;;2.17;;
11066;SDS011;29763;50.904;5.530;2023-09-18T09:09:56;4.03;;;2.22;;
11066;SDS011;29763;50.904;5.530;2023-09-18T09:15:35;2.53;;;2.03;;
11066;SDS011;29763;50.904;5.530;2023-09-18T09:18:18;3.38;;;1.92;;
11066;SDS011;29763;50.904;5.530;2023-09-18T09:21:03;3.88;;;2.22;;
11066;SDS011;29763;50.904;5.530;2023-09-18T09:26:30;3.33;;;2.33;;
11066;SDS011;29763;50.904;5.530;2023-09-18T09:28:57;2.42;;;2.20;;
11066;SDS011;29763;50.904;5.530;2023-09-18T09:31:52;2.40;;;2.20;;
11066;SDS011;29763;50.904;5.530;2023-09-18T09:34:26;3.38;;;2.40;;
11066;SDS011;29763;50.904;5.530;2023-09-18T09:36:54;4.30;;;2.42;;
11066;SDS011;29763;50.904;5.530;2023-09-18T09:39:21;2.45;;;2.10;;
11066;SDS011;29763;50.904;5.530;2023-09-18T09:41:53;3.97;;;2.20;;
11066;SDS011;29763;50.904;5.530;2023-09-18T09:44:38;2.90;;;2.60;;
11066;SDS011;29763;50.904;5.530;2023-09-18T09:47:13;3.08;;;2.53;;
11066;SDS011;29763;50.904;5.530;2023-09-18T09:49:47;4.65;;;2.50;;
11066;SDS011;29763;50.904;5.530;2023-09-18T09:52:18;2.92;;;2.35;;
11066;SDS011;29763;50.904;5.530;2023-09-18T09:54:48;4.05;;;2.38;;
11066;SDS011;29763;50.904;5.530;2023-09-18T09:57:21;4.40;;;2.53;;
11066;SDS011;29763;50.904;5.530;2023-09-18T09:59:47;4.07;;;2.53;;
11066;SDS011;29763;50.904;5.530;2023-09-18T10:02:16;4.93;;;2.70;;
11066;SDS011;29763;50.904;5.530;2023-09-18T10:04:47;3.67;;;2.30;;
11066;SDS011;29763;50.904;5.530;2023-09-18T10:07:15;4.18;;;2.40;;
11066;SDS011;29763;50.904;5.530;2023-09-18T10:09:55;5.03;;;2.50;;
11066;SDS011;29763;50.904;5.530;2023-09-18T10:12:24;5.35;;;2.30;;
11066;SDS011;29763;50.904;5.530;2023-09-18T10:14:51;3.58;;;2.35;;
11066;SDS011;29763;50.904;5.530;2023-09-18T10:17:23;2.50;;;2.30;;
11066;SDS011;29763;50.904;5.530;2023-09-18T10:22:37;3.45;;;2.47;;
11066;SDS011;29763;50.904;5.530;2023-09-18T10:28:01;2.40;;;2.20;;
11066;SDS011;29763;50.904;5.530;2023-09-18T10:30:29;2.50;;;2.30;;
11066;SDS011;29763;50.904;5.530;2023-09-18T10:32:59;5.47;;;2.72;;
11066;SDS011;29763;50.904;5.530;2023-09-18T10:35:27;3.33;;;2.50;;
11066;SDS011;29763;50.904;5.530;2023-09-18T10:37:56;3.95;;;2.50;;
11066;SDS011;29763;50.904;5.530;2023-09-18T10:40:26;3.97;;;2.38;;
11066;SDS011;29763;50.904;5.530;2023-09-18T10:42:54;4.47;;;2.58;;
11066;SDS011;29763;50.904;5.530;2023-09-18T10:45:22;2.78;;;2.40;;
11066;SDS011;29763;50.904;5.530;2023-09-18T10:47:48;4.72;;;2.70;;
11066;SDS011;29763;50.904;5.530;2023-09-18T10:50:25;3.42;;;2.20;;
11066;SDS011;29763;50.904;5.530;2023-09-18T10:53:11;4.28;;;2.30;;
11066;SDS011;29763;50.904;5.530;2023-09-18T10:55:40;4.32;;;2.33;;
11066;SDS011;29763;50.904;5.530;2023-09-18T10:58:13;3.08;;;2.22;;
11066;SDS011;29763;50.904;5.530;2023-09-18T11:01:01;2.88;;;2.20;;
11066;SDS011;29763;50.904;5.530;2023-09-18T11:03:33;3.72;;;2.53;;
11066;SDS011;29763;50.904;5.530;2023-09-18T11:06:11;2.47;;;2.25;;
11066;SDS011;29763;50.904;5.530;2023-09-18T11:08:48;2.50;;;2.10;;
11066;SDS011;29763;50.904;5.530;2023-09-18T11:11:19;3.30;;;2.20;;
11066;SDS011;29763;50.904;5.530;2023-09-18T11:13:46;3.08;;;2.20;;
11066;SDS011;29763;50.904;5.530;2023-09-18T11:21:39;3.67;;;2.45;;
11066;SDS011;29763;50.904;5.530;2023-09-18T11:26:58;4.22;;;2.42;;
11066;SDS011;29763;50.904;5.530;2023-09-18T11:29:29;3.67;;;2.40;;
11066;SDS011;29763;50.904;5.530;2023-09-18T11:32:02;3.30;;;2.20;;
11066;SDS011;29763;50.904;5.530;2023-09-18T11:34:38;4.75;;;2.30;;
11066;SDS011;29763;50.904;5.530;2023-09-18T11:37:22;3.80;;;2.33;;
11066;SDS011;29763;50.904;5.530;2023-09-18T11:39:50;2.85;;;2.55;;
11066;SDS011;29763;50.904;5.530;2023-09-18T11:42:23;3.55;;;2.45;;
11066;SDS011;29763;50.904;5.530;2023-09-18T11:44:58;4.75;;;2.60;;
11066;SDS011;29763;50.904;5.530;2023-09-18T11:47:30;3.78;;;2.20;;
11066;SDS011;29763;50.904;5.530;2023-09-18T11:50:10;2.47;;;2.28;;
11066;SDS011;29763;50.904;5.530;2023-09-18T11:52:39;4.13;;;2.50;;
11066;SDS011;29763;50.904;5.530;2023-09-18T11:55:10;2.17;;;1.98;;
11066;SDS011;29763;50.904;5.530;2023-09-18T11:57:38;3.95;;;2.50;;
11066;SDS011;29763;50.904;5.530;2023-09-18T12:00:19;4.35;;;2.20;;
11066;SDS011;29763;50.904;5.530;2023-09-18T12:02:50;2.88;;;2.40;;
11066;SDS011;29763;50.904;5.530;2023-09-18T12:05:23;3.80;;;2.30;;
11066;SDS011;29763;50.904;5.530;2023-09-18T12:07:55;4.15;;;2.15;;
11066;SDS011;29763;50.904;5.530;2023-09-18T12:10:22;3.58;;;2.40;;
11066;SDS011;29763;50.904;5.530;2023-09-18T12:12:54;3.45;;;2.20;;
11066;SDS011;29763;50.904;5.530;2023-09-18T12:15:22;3.85;;;2.65;;
11066;SDS011;29763;50.904;5.530;2023-09-18T12:17:54;3.78;;;2.30;;
11066;SDS011;29763;50.904;5.530;2023-09-18T12:20:30;3.60;;;1.98;;
11066;SDS011;29763;50.904;5.530;2023-09-18T12:22:59;3.60;;;2.20;;
11066;SDS011;29763;50.904;5.530;2023-09-18T12:25:25;3.45;;;2.28;;
11066;SDS011;29763;50.904;5.530;2023-09-18T12:27:52;2.70;;;2.20;;
11066;SDS011;29763;50.904;5.530;2023-09-18T12:30:19;3.63;;;2.20;;
11066;SDS011;29763;50.904;5.530;2023-09-18T12:32:52;2.97;;;2.22;;
11066;SDS011;29763;50.904;5.530;2023-09-18T12:35:23;4.05;;;2.15;;
11066;SDS011;29763;50.904;5.530;2023-09-18T12:37:54;4.40;;;2.20;;
11066;SDS011;29763;50.904;5.530;2023-09-18T12:40:24;3.17;;;2.25;;
11066;SDS011;29763;50.904;5.530;2023-09-18T12:43:06;2.35;;;2.15;;
11066;SDS011;29763;50.904;5.530;2023-09-18T12:45:40;2.50;;;2.20;;
11066;SDS011;29763;50.904;5.530;2023-09-18T12:48:19;3.63;;;2.30;;
11066;SDS011;29763;50.904;5.530;2023-09-18T12:50:45;4.25;;;2.20;;
11066;SDS011;29763;50.904;5.530;2023-09-18T12:53:11;4.82;;;2.10;;
11066;SDS011;29763;50.904;5.530;2023-09-18T12:55:42;3.10;;;2.10;;
11066;SDS011;29763;50.904;5.530;2023-09-18T12:58:11;2.53;;;2.10;;
11066;SDS011;29763;50.904;5.530;2023-09-18T13:00:47;3.35;;;2.13;;
11066;SDS011;29763;50.904;5.530;2023-09-18T13:03:17;3.13;;;2.50;;
11066;SDS011;29763;50.904;5.530;2023-09-18T13:05:43;5.22;;;2.20;;
11066;SDS011;29763;50.904;5.530;2023-09-18T13:08:09;4.43;;;2.33;;
11066;SDS011;29763;50.904;5.530;2023-09-18T13:10:44;3.33;;;1.75;;
11066;SDS011;29763;50.904;5.530;2023-09-18T13:13:18;3.13;;;2.08;;
11066;SDS011;29763;50.904;5.530;2023-09-18T13:15:48;2.90;;;2.20;;
11066;SDS011;29763;50.904;5.530;2023-09-18T13:18:16;2.70;;;2.00;;
11066;SDS011;29763;50.904;5.530;2023-09-18T13:20:42;2.63;;;1.80;;
11066;SDS011;29763;50.904;5.530;2023-09-18T13:23:08;2.20;;;2.00;;
11066;SDS011;29763;50.904;5.530;2023-09-18T13:25:38;2.53;;;2.10;;
11066;SDS011;29763;50.904;5.530;2023-09-18T13:28:08;2.95;;;2.17;;
11066;SDS011;29763;50.904;5.530;2023-09-18T13:30:38;3.15;;;1.88;;
11066;SDS011;29763;50.904;5.530;2023-09-18T13:33:07;2.70;;;2.22;;
11066;SDS011;29763;50.904;5.530;2023-09-18T13:35:41;3.50;;;2.10;;
11066;SDS011;29763;50.904;5.530;2023-09-18T13:38:08;1.75;;;1.63;;
11066;SDS011;29763;50.904;5.530;2023-09-18T13:40:36;3.38;;;2.20;;
11066;SDS011;29763;50.904;5.530;2023-09-18T13:43:05;2.85;;;2.00;;
11066;SDS011;29763;50.904;5.530;2023-09-18T13:45:33;2.65;;;1.80;;
11066;SDS011;29763;50.904;5.530;2023-09-18T13:48:03;2.28;;;2.08;;
11066;SDS011;29763;50.904;5.530;2023-09-18T13:50:29;2.50;;;2.08;;
11066;SDS011;29763;50.904;5.530;2023-09-18T13:52:56;2.97;;;2.10;;
11066;SDS011;29763;50.904;5.530;2023-09-18T13:55:22;2.65;;;1.90;;
11066;SDS011;29763;50.904;5.530;2023-09-18T13:57:48;4.88;;;2.38;;
11066;SDS011;29763;50.904;5.530;2023-09-18T14:00:13;2.08;;;1.85;;
11066;SDS011;29763;50.904;5.530;2023-09-18T14:02:40;2.38;;;1.98;;
11066;SDS011;29763;50.904;5.530;2023-09-18T14:05:07;3.65;;;2.17;;
11066;SDS011;29763;50.904;5.530;2023-09-18T14:07:34;3.70;;;1.95;;
11066;SDS011;29763;50.904;5.530;2023-09-18T14:10:01;1.80;;;1.70;;
11066;SDS011;29763;50.904;5.530;2023-09-18T14:12:29;2.50;;;1.90;;
11066;SDS011;29763;50.904;5.530;2023-09-18T14:14:55;5.60;;;2.30;;
11066;SDS011;29763;50.904;5.530;2023-09-18T14:17:22;2.38;;;2.05;;
11066;SDS011;29763;50.904;5.530;2023-09-18T14:19:48;2.42;;;2.20;;
11066;SDS011;29763;50.904;5.530;2023-09-18T14:22:14;2.30;;;2.10;;
11066;SDS011;29763;50.904;5.530;2023-09-18T14:24:40;2.47;;;1.83;;
11066;SDS011;29763;50.904;5.530;2023-09-18T14:27:06;2.28;;;1.90;;
11066;SDS011;29763;50.904;5.530;2023-09-18T14:29:32;3.47;;;2.20;;
11066;SDS011;29763;50.904;5.530;2023-09-18T14:32:02;2.65;;;2.03;;
11066;SDS011;29763;50.904;5.530;2023-09-18T14:34:29;2.33;;;2.13;;
11066;SDS011;29763;50.904;5.530;2023-09-18T14:37:00;4.32;;;2.35;;
11066;SDS011;29763;50.904;5.530;2023-09-18T14:39:30;3.45;;;1.92;;
11066;SDS011;29763;50.904;5.530;2023-09-18T14:41:56;2.45;;;2.08;;
11066;SDS011;29763;50.904;5.530;2023-09-18T14:44:21;3.22;;;2.40;;
11066;SDS011;29763;50.904;5.530;2023-09-18T14:46:47;2.33;;;1.90;;
11066;SDS011;29763;50.904;5.530;2023-09-18T14:49:14;3.95;;;2.40;;
11066;SDS011;29763;50.904;5.530;2023-09-18T14:51:40;2.00;;;1.83;;
11066;SDS011;29763;50.904;5.530;2023-09-18T14:54:06;5.28;;;2.05;;
11066;SDS011;29763;50.904;5.530;2023-09-18T14:56:33;2.42;;;2.22;;
11066;SDS011;29763;50.904;5.530;2023-09-18T14:59:00;3.20;;;1.88;;
11066;SDS011;29763;50.904;5.530;2023-09-18T15:01:27;3.80;;;2.05;;
11066;SDS011;29763;50.904;5.530;2023-09-18T15:03:53;5.15;;;2.03;;
11066;SDS011;29763;50.904;5.530;2023-09-18T15:06:19;5.05;;;2.50;;
11066;SDS011;29763;50.904;5.530;2023-09-18T15:08:46;3.92;;;1.98;;
11066;SDS011;29763;50.904;5.530;2023-09-18T15:11:13;3.90;;;2.30;;
11066;SDS011;29763;50.904;5.530;2023-09-18T15:13:42;3.08;;;2.10;;
11066;SDS011;29763;50.904;5.530;2023-09-18T15:16:11;4.53;;;2.17;;
11066;SDS011;29763;50.904;5.530;2023-09-18T15:18:38;6.32;;;2.58;;
11066;SDS011;29763;50.904;5.530;2023-09-18T15:21:04;2.47;;;2.22;;
11066;SDS011;29763;50.904;5.530;2023-09-18T15:23:30;4.15;;;2.45;;
11066;SDS011;29763;50.904;5.530;2023-09-18T15:25:56;3.17;;;2.85;;
11066;SDS011;29763;50.904;5.530;2023-09-18T15:28:22;3.80;;;2.67;;
11066;SDS011;29763;50.904;5.530;2023-09-18T15:30:51;3.90;;;2.63;;
11066;SDS011;29763;50.904;5.530;2023-09-18T15:33:18;3.75;;;2.85;;
11066;SDS011;29763;50.904;5.530;2023-09-18T15:35:47;4.47;;;2.88;;
11066;SDS011;29763;50.904;5.530;2023-09-18T15:38:14;5.05;;;2.88;;
11066;SDS011;29763;50.904;5.530;2023-09-18T15:40:40;3.50;;;2.83;;
11066;SDS011;29763;50.904;5.530;2023-09-18T15:43:05;4.50;;;3.17;;